Rechercher aéroport 
image banner adimage banner ad
image banner ad

SJOJ - Simasa Airport

Situé à Açailândia, Brazil

ICAO - SJOJ, IATA -

Données fournies par Airmate  

Information générale

Coordonnées: S4°52'9" W47°23'21"
Élévation : 656 feet MSL.
Variation magnétique : -21° East
Voir autres Aéroports à Maranhão

Données opérationnelles

Accessible au public
Heure actuelle UTC:
Heure actuelle locale:
METAR: SBIZ 252100Z 25004KT 9999 FEW025 FEW030TCU 34/25 Q1006
TAF: TAF SBIZ 251500Z 2518/2606 13010KT 7000 BKN025 FEW030TCU TX32/2518Z TN25/2606Z PROB40 2518/2521 5000 TSRA BKN020 FEW027CB BECMG 2521/2523 25007KT 9999 SCT017 BECMG 2603/2605 15005KT CAVOK RMK PHN
Voir NOTAMs / SUP AIP / TFR affectant cet aéroport [VIEW]
Fréquences de communication: [VIEW]

Pistes:

Identifiant RWYQFULongueur (ft)Largeur (ft)SurfaceLDA (ft)
06390475ASPH
24390475ASPH

Coordonnées de l'aéroport

Adresse: Açailândia Brazil

Vue satellite de SJOJ